sensor_id;sensor_type;location;lat;lon;timestamp;P1;durP1;ratioP1;P2;durP2;ratioP2
7571;SDS011;3827;49.928;8.548;2023-09-07T00:01:11;3.47;;;3.17;;
7571;SDS011;3827;49.928;8.548;2023-09-07T00:03:39;3.10;;;2.90;;
7571;SDS011;3827;49.928;8.548;2023-09-07T00:06:06;3.50;;;3.00;;
7571;SDS011;3827;49.928;8.548;2023-09-07T00:08:33;3.45;;;3.17;;
7571;SDS011;3827;49.928;8.548;2023-09-07T00:11:02;3.33;;;3.05;;
7571;SDS011;3827;49.928;8.548;2023-09-07T00:13:29;3.30;;;3.03;;
7571;SDS011;3827;49.928;8.548;2023-09-07T00:15:57;3.78;;;3.47;;
7571;SDS011;3827;49.928;8.548;2023-09-07T00:18:25;3.63;;;3.20;;
7571;SDS011;3827;49.928;8.548;2023-09-07T00:20:53;3.83;;;3.38;;
7571;SDS011;3827;49.928;8.548;2023-09-07T00:23:19;3.70;;;3.40;;
7571;SDS011;3827;49.928;8.548;2023-09-07T00:25:46;4.22;;;3.83;;
7571;SDS011;3827;49.928;8.548;2023-09-07T00:28:13;3.92;;;3.53;;
7571;SDS011;3827;49.928;8.548;2023-09-07T00:30:40;4.00;;;3.70;;
7571;SDS011;3827;49.928;8.548;2023-09-07T00:33:07;3.30;;;3.00;;
7571;SDS011;3827;49.928;8.548;2023-09-07T00:35:34;3.80;;;3.50;;
7571;SDS011;3827;49.928;8.548;2023-09-07T00:38:02;3.60;;;3.30;;
7571;SDS011;3827;49.928;8.548;2023-09-07T00:40:29;3.88;;;3.25;;
7571;SDS011;3827;49.928;8.548;2023-09-07T00:42:56;3.77;;;3.47;;
7571;SDS011;3827;49.928;8.548;2023-09-07T00:45:24;3.70;;;3.40;;
7571;SDS011;3827;49.928;8.548;2023-09-07T00:47:51;3.45;;;3.20;;
7571;SDS011;3827;49.928;8.548;2023-09-07T00:50:18;4.10;;;3.70;;
7571;SDS011;3827;49.928;8.548;2023-09-07T00:52:45;3.97;;;3.58;;
7571;SDS011;3827;49.928;8.548;2023-09-07T00:55:14;4.00;;;3.63;;
7571;SDS011;3827;49.928;8.548;2023-09-07T00:57:41;3.77;;;3.47;;
7571;SDS011;3827;49.928;8.548;2023-09-07T01:00:09;4.10;;;3.80;;
7571;SDS011;3827;49.928;8.548;2023-09-07T01:02:37;4.18;;;3.85;;
7571;SDS011;3827;49.928;8.548;2023-09-07T01:05:03;3.80;;;3.50;;
7571;SDS011;3827;49.928;8.548;2023-09-07T01:07:32;4.20;;;3.80;;
7571;SDS011;3827;49.928;8.548;2023-09-07T01:10:02;4.03;;;3.72;;
7571;SDS011;3827;49.928;8.548;2023-09-07T01:12:30;4.55;;;4.15;;
7571;SDS011;3827;49.928;8.548;2023-09-07T01:14:57;4.47;;;4.07;;
7571;SDS011;3827;49.928;8.548;2023-09-07T01:17:24;4.50;;;3.93;;
7571;SDS011;3827;49.928;8.548;2023-09-07T01:19:52;4.40;;;4.05;;
7571;SDS011;3827;49.928;8.548;2023-09-07T01:22:23;4.18;;;3.78;;
7571;SDS011;3827;49.928;8.548;2023-09-07T01:24:50;4.30;;;3.92;;
7571;SDS011;3827;49.928;8.548;2023-09-07T01:27:18;4.17;;;3.87;;
7571;SDS011;3827;49.928;8.548;2023-09-07T01:29:45;4.40;;;4.00;;
7571;SDS011;3827;49.928;8.548;2023-09-07T01:32:11;4.43;;;4.03;;
7571;SDS011;3827;49.928;8.548;2023-09-07T01:34:38;4.50;;;4.10;;
7571;SDS011;3827;49.928;8.548;2023-09-07T01:37:05;4.07;;;3.75;;
7571;SDS011;3827;49.928;8.548;2023-09-07T01:39:33;3.70;;;3.40;;
7571;SDS011;3827;49.928;8.548;2023-09-07T01:42:00;4.07;;;3.78;;
7571;SDS011;3827;49.928;8.548;2023-09-07T01:44:27;3.75;;;3.45;;
7571;SDS011;3827;49.928;8.548;2023-09-07T01:46:54;4.43;;;3.63;;
7571;SDS011;3827;49.928;8.548;2023-09-07T01:49:21;4.10;;;3.77;;
7571;SDS011;3827;49.928;8.548;2023-09-07T01:51:50;3.80;;;3.50;;
7571;SDS011;3827;49.928;8.548;2023-09-07T01:54:17;4.35;;;3.95;;
7571;SDS011;3827;49.928;8.548;2023-09-07T01:56:45;3.70;;;3.40;;
7571;SDS011;3827;49.928;8.548;2023-09-07T01:59:12;4.30;;;4.00;;
7571;SDS011;3827;49.928;8.548;2023-09-07T02:01:39;4.20;;;3.80;;
7571;SDS011;3827;49.928;8.548;2023-09-07T02:04:05;4.40;;;4.00;;
7571;SDS011;3827;49.928;8.548;2023-09-07T02:06:32;4.18;;;3.85;;
7571;SDS011;3827;49.928;8.548;2023-09-07T02:08:59;4.22;;;3.83;;
7571;SDS011;3827;49.928;8.548;2023-09-07T02:11:29;3.88;;;3.58;;
7571;SDS011;3827;49.928;8.548;2023-09-07T02:13:57;4.15;;;3.85;;
7571;SDS011;3827;49.928;8.548;2023-09-07T02:16:24;4.22;;;3.83;;
7571;SDS011;3827;49.928;8.548;2023-09-07T02:18:59;4.55;;;4.15;;
7571;SDS011;3827;49.928;8.548;2023-09-07T02:21:28;4.43;;;4.03;;
7571;SDS011;3827;49.928;8.548;2023-09-07T02:23:55;4.63;;;3.90;;
7571;SDS011;3827;49.928;8.548;2023-09-07T02:26:21;4.32;;;3.95;;
7571;SDS011;3827;49.928;8.548;2023-09-07T02:28:48;4.22;;;3.90;;
7571;SDS011;3827;49.928;8.548;2023-09-07T02:31:16;4.55;;;4.18;;
7571;SDS011;3827;49.928;8.548;2023-09-07T02:33:43;4.80;;;4.40;;
7571;SDS011;3827;49.928;8.548;2023-09-07T02:36:10;4.45;;;4.05;;
7571;SDS011;3827;49.928;8.548;2023-09-07T02:38:36;4.60;;;4.07;;
7571;SDS011;3827;49.928;8.548;2023-09-07T02:41:03;5.20;;;4.30;;
7571;SDS011;3827;49.928;8.548;2023-09-07T02:43:30;4.28;;;3.88;;
7571;SDS011;3827;49.928;8.548;2023-09-07T02:45:57;4.38;;;3.97;;
7571;SDS011;3827;49.928;8.548;2023-09-07T02:48:25;4.65;;;4.25;;
7571;SDS011;3827;49.928;8.548;2023-09-07T02:50:52;3.90;;;3.60;;
7571;SDS011;3827;49.928;8.548;2023-09-07T02:53:19;4.32;;;4.03;;
7571;SDS011;3827;49.928;8.548;2023-09-07T02:55:45;4.35;;;4.05;;
7571;SDS011;3827;49.928;8.548;2023-09-07T02:58:12;4.38;;;4.07;;
7571;SDS011;3827;49.928;8.548;2023-09-07T03:00:42;4.13;;;3.83;;
7571;SDS011;3827;49.928;8.548;2023-09-07T03:03:09;4.20;;;3.80;;
7571;SDS011;3827;49.928;8.548;2023-09-07T03:05:38;4.93;;;4.30;;
7571;SDS011;3827;49.928;8.548;2023-09-07T03:08:05;4.60;;;4.20;;
7571;SDS011;3827;49.928;8.548;2023-09-07T03:10:33;4.68;;;4.28;;
7571;SDS011;3827;49.928;8.548;2023-09-07T03:13:01;4.40;;;4.05;;
7571;SDS011;3827;49.928;8.548;2023-09-07T03:15:28;4.45;;;4.05;;
7571;SDS011;3827;49.928;8.548;2023-09-07T03:17:55;4.63;;;4.13;;
7571;SDS011;3827;49.928;8.548;2023-09-07T03:20:22;4.53;;;4.13;;
7571;SDS011;3827;49.928;8.548;2023-09-07T03:22:50;4.38;;;4.07;;
7571;SDS011;3827;49.928;8.548;2023-09-07T03:25:17;4.23;;;3.90;;
7571;SDS011;3827;49.928;8.548;2023-09-07T03:27:43;4.20;;;3.90;;
7571;SDS011;3827;49.928;8.548;2023-09-07T03:30:11;4.03;;;3.70;;
7571;SDS011;3827;49.928;8.548;2023-09-07T03:32:38;3.90;;;3.60;;
7571;SDS011;3827;49.928;8.548;2023-09-07T03:35:04;4.70;;;4.30;;
7571;SDS011;3827;49.928;8.548;2023-09-07T03:37:35;4.70;;;4.30;;
7571;SDS011;3827;49.928;8.548;2023-09-07T03:40:04;4.15;;;3.72;;
7571;SDS011;3827;49.928;8.548;2023-09-07T03:42:34;4.70;;;4.30;;
7571;SDS011;3827;49.928;8.548;2023-09-07T03:45:01;4.82;;;4.03;;
7571;SDS011;3827;49.928;8.548;2023-09-07T03:47:28;4.40;;;4.00;;
7571;SDS011;3827;49.928;8.548;2023-09-07T03:49:55;4.65;;;4.13;;
7571;SDS011;3827;49.928;8.548;2023-09-07T03:52:22;4.50;;;4.10;;
7571;SDS011;3827;49.928;8.548;2023-09-07T03:54:49;4.38;;;4.00;;
7571;SDS011;3827;49.928;8.548;2023-09-07T03:57:18;4.50;;;3.90;;
7571;SDS011;3827;49.928;8.548;2023-09-07T03:59:45;4.30;;;4.00;;
7571;SDS011;3827;49.928;8.548;2023-09-07T04:02:12;4.38;;;3.97;;
7571;SDS011;3827;49.928;8.548;2023-09-07T04:04:39;4.18;;;3.88;;
7571;SDS011;3827;49.928;8.548;2023-09-07T04:07:06;4.45;;;4.05;;
7571;SDS011;3827;49.928;8.548;2023-09-07T04:09:32;4.60;;;4.20;;
7571;SDS011;3827;49.928;8.548;2023-09-07T04:11:59;4.45;;;4.05;;
7571;SDS011;3827;49.928;8.548;2023-09-07T04:14:30;3.97;;;3.67;;
7571;SDS011;3827;49.928;8.548;2023-09-07T04:16:56;4.57;;;4.13;;
7571;SDS011;3827;49.928;8.548;2023-09-07T04:19:23;3.97;;;3.58;;
7571;SDS011;3827;49.928;8.548;2023-09-07T04:21:50;4.40;;;4.00;;
7571;SDS011;3827;49.928;8.548;2023-09-07T04:24:17;4.20;;;3.90;;
7571;SDS011;3827;49.928;8.548;2023-09-07T04:26:44;4.70;;;4.30;;
7571;SDS011;3827;49.928;8.548;2023-09-07T04:29:10;4.47;;;4.10;;
7571;SDS011;3827;49.928;8.548;2023-09-07T04:31:39;4.70;;;4.20;;
7571;SDS011;3827;49.928;8.548;2023-09-07T04:34:06;4.38;;;3.97;;
7571;SDS011;3827;49.928;8.548;2023-09-07T04:36:33;4.15;;;3.85;;
7571;SDS011;3827;49.928;8.548;2023-09-07T04:39:01;4.32;;;3.92;;
7571;SDS011;3827;49.928;8.548;2023-09-07T04:41:28;4.18;;;3.80;;
7571;SDS011;3827;49.928;8.548;2023-09-07T04:43:55;4.60;;;4.20;;
7571;SDS011;3827;49.928;8.548;2023-09-07T04:46:22;4.05;;;3.75;;
7571;SDS011;3827;49.928;8.548;2023-09-07T04:48:50;4.40;;;4.00;;
7571;SDS011;3827;49.928;8.548;2023-09-07T04:51:17;4.68;;;4.28;;
7571;SDS011;3827;49.928;8.548;2023-09-07T04:53:44;4.30;;;3.90;;
7571;SDS011;3827;49.928;8.548;2023-09-07T04:56:11;4.60;;;4.20;;
7571;SDS011;3827;49.928;8.548;2023-09-07T04:58:39;4.47;;;4.07;;
7571;SDS011;3827;49.928;8.548;2023-09-07T05:01:06;3.90;;;3.60;;
7571;SDS011;3827;49.928;8.548;2023-09-07T05:03:35;4.20;;;3.80;;
7571;SDS011;3827;49.928;8.548;2023-09-07T05:06:03;4.05;;;3.70;;
7571;SDS011;3827;49.928;8.548;2023-09-07T05:08:30;4.10;;;3.70;;
7571;SDS011;3827;49.928;8.548;2023-09-07T05:10:58;4.00;;;3.67;;
7571;SDS011;3827;49.928;8.548;2023-09-07T05:13:26;4.05;;;3.65;;
7571;SDS011;3827;49.928;8.548;2023-09-07T05:15:54;4.30;;;3.90;;
7571;SDS011;3827;49.928;8.548;2023-09-07T05:18:22;4.13;;;3.72;;
7571;SDS011;3827;49.928;8.548;2023-09-07T05:20:49;4.53;;;3.75;;
7571;SDS011;3827;49.928;8.548;2023-09-07T05:23:18;4.10;;;3.80;;
7571;SDS011;3827;49.928;8.548;2023-09-07T05:25:45;4.00;;;3.67;;
7571;SDS011;3827;49.928;8.548;2023-09-07T05:28:13;4.40;;;4.00;;
7571;SDS011;3827;49.928;8.548;2023-09-07T05:30:40;4.28;;;3.67;;
7571;SDS011;3827;49.928;8.548;2023-09-07T05:33:08;3.85;;;3.53;;
7571;SDS011;3827;49.928;8.548;2023-09-07T05:35:35;4.45;;;4.05;;
7571;SDS011;3827;49.928;8.548;2023-09-07T05:38:02;4.20;;;3.90;;
7571;SDS011;3827;49.928;8.548;2023-09-07T05:40:31;4.13;;;3.75;;
7571;SDS011;3827;49.928;8.548;2023-09-07T05:42:59;4.75;;;4.25;;
7571;SDS011;3827;49.928;8.548;2023-09-07T05:45:26;4.35;;;3.95;;
7571;SDS011;3827;49.928;8.548;2023-09-07T05:47:53;4.30;;;3.90;;
7571;SDS011;3827;49.928;8.548;2023-09-07T05:50:20;4.28;;;3.90;;
7571;SDS011;3827;49.928;8.548;2023-09-07T05:52:47;4.10;;;3.70;;
7571;SDS011;3827;49.928;8.548;2023-09-07T05:55:14;4.40;;;4.10;;
7571;SDS011;3827;49.928;8.548;2023-09-07T05:57:42;4.30;;;3.90;;
7571;SDS011;3827;49.928;8.548;2023-09-07T06:00:09;4.40;;;4.03;;
7571;SDS011;3827;49.928;8.548;2023-09-07T06:02:36;4.40;;;3.80;;
7571;SDS011;3827;49.928;8.548;2023-09-07T06:05:03;4.57;;;4.10;;
7571;SDS011;3827;49.928;8.548;2023-09-07T06:07:30;4.18;;;3.85;;
7571;SDS011;3827;49.928;8.548;2023-09-07T06:09:57;5.25;;;3.60;;
7571;SDS011;3827;49.928;8.548;2023-09-07T06:12:24;4.20;;;3.80;;
7571;SDS011;3827;49.928;8.548;2023-09-07T06:14:53;4.77;;;4.10;;
7571;SDS011;3827;49.928;8.548;2023-09-07T06:17:19;4.35;;;3.92;;
7571;SDS011;3827;49.928;8.548;2023-09-07T06:19:46;4.40;;;4.00;;
7571;SDS011;3827;49.928;8.548;2023-09-07T06:22:13;4.50;;;3.83;;
7571;SDS011;3827;49.928;8.548;2023-09-07T06:24:39;4.72;;;3.95;;
7571;SDS011;3827;49.928;8.548;2023-09-07T06:27:06;4.22;;;3.92;;
7571;SDS011;3827;49.928;8.548;2023-09-07T06:29:33;3.80;;;3.50;;
7571;SDS011;3827;49.928;8.548;2023-09-07T06:32:01;4.28;;;3.85;;
7571;SDS011;3827;49.928;8.548;2023-09-07T06:34:28;3.73;;;3.40;;
7571;SDS011;3827;49.928;8.548;2023-09-07T06:36:55;4.30;;;3.90;;
7571;SDS011;3827;49.928;8.548;2023-09-07T06:39:22;4.28;;;3.88;;
7571;SDS011;3827;49.928;8.548;2023-09-07T06:41:48;4.30;;;3.90;;
7571;SDS011;3827;49.928;8.548;2023-09-07T06:44:15;4.47;;;4.07;;
7571;SDS011;3827;49.928;8.548;2023-09-07T06:46:42;4.32;;;3.90;;
7571;SDS011;3827;49.928;8.548;2023-09-07T06:49:10;4.20;;;3.80;;
7571;SDS011;3827;49.928;8.548;2023-09-07T06:51:37;4.50;;;4.05;;
7571;SDS011;3827;49.928;8.548;2023-09-07T06:54:03;4.07;;;3.78;;
7571;SDS011;3827;49.928;8.548;2023-09-07T06:56:30;4.30;;;3.90;;
7571;SDS011;3827;49.928;8.548;2023-09-07T06:58:59;4.00;;;3.70;;
7571;SDS011;3827;49.928;8.548;2023-09-07T07:01:26;4.10;;;3.70;;
7571;SDS011;3827;49.928;8.548;2023-09-07T07:03:53;4.25;;;3.95;;
7571;SDS011;3827;49.928;8.548;2023-09-07T07:06:23;4.20;;;3.73;;
7571;SDS011;3827;49.928;8.548;2023-09-07T07:08:51;4.55;;;3.80;;
7571;SDS011;3827;49.928;8.548;2023-09-07T07:11:17;4.28;;;3.40;;
7571;SDS011;3827;49.928;8.548;2023-09-07T07:13:44;3.88;;;3.58;;
7571;SDS011;3827;49.928;8.548;2023-09-07T07:16:11;4.13;;;3.72;;
7571;SDS011;3827;49.928;8.548;2023-09-07T07:18:38;3.80;;;3.50;;
7571;SDS011;3827;49.928;8.548;2023-09-07T07:21:05;3.67;;;3.20;;
7571;SDS011;3827;49.928;8.548;2023-09-07T07:23:35;3.70;;;3.40;;
7571;SDS011;3827;49.928;8.548;2023-09-07T07:26:02;3.70;;;3.38;;
7571;SDS011;3827;49.928;8.548;2023-09-07T07:28:28;4.03;;;3.63;;
7571;SDS011;3827;49.928;8.548;2023-09-07T07:30:55;3.80;;;3.47;;
7571;SDS011;3827;49.928;8.548;2023-09-07T07:33:22;3.90;;;3.60;;
7571;SDS011;3827;49.928;8.548;2023-09-07T07:35:49;3.58;;;3.38;;
7571;SDS011;3827;49.928;8.548;2023-09-07T07:38:15;3.75;;;3.45;;
7571;SDS011;3827;49.928;8.548;2023-09-07T07:40:43;3.47;;;3.17;;
7571;SDS011;3827;49.928;8.548;2023-09-07T07:43:11;3.40;;;3.10;;
7571;SDS011;3827;49.928;8.548;2023-09-07T07:45:38;3.72;;;3.42;;
7571;SDS011;3827;49.928;8.548;2023-09-07T07:48:05;3.55;;;3.25;;
7571;SDS011;3827;49.928;8.548;2023-09-07T07:50:35;3.50;;;3.20;;
7571;SDS011;3827;49.928;8.548;2023-09-07T07:53:03;3.58;;;3.03;;
7571;SDS011;3827;49.928;8.548;2023-09-07T07:55:33;3.70;;;3.40;;
7571;SDS011;3827;49.928;8.548;2023-09-07T07:58:04;3.60;;;3.30;;
7571;SDS011;3827;49.928;8.548;2023-09-07T08:00:32;3.63;;;3.38;;
7571;SDS011;3827;49.928;8.548;2023-09-07T08:02:59;3.80;;;3.42;;
7571;SDS011;3827;49.928;8.548;2023-09-07T08:05:27;3.83;;;3.50;;
7571;SDS011;3827;49.928;8.548;2023-09-07T08:07:54;3.88;;;3.58;;
7571;SDS011;3827;49.928;8.548;2023-09-07T08:10:20;3.60;;;3.30;;
7571;SDS011;3827;49.928;8.548;2023-09-07T08:12:47;3.28;;;2.97;;
7571;SDS011;3827;49.928;8.548;2023-09-07T08:15:15;3.20;;;2.90;;
7571;SDS011;3827;49.928;8.548;2023-09-07T08:17:45;3.30;;;3.05;;
7571;SDS011;3827;49.928;8.548;2023-09-07T08:20:12;4.93;;;3.30;;
7571;SDS011;3827;49.928;8.548;2023-09-07T08:22:40;3.35;;;3.05;;
7571;SDS011;3827;49.928;8.548;2023-09-07T08:25:07;3.13;;;2.83;;
7571;SDS011;3827;49.928;8.548;2023-09-07T08:27:34;3.53;;;3.25;;
7571;SDS011;3827;49.928;8.548;2023-09-07T08:30:01;3.70;;;3.40;;
7571;SDS011;3827;49.928;8.548;2023-09-07T08:32:32;3.30;;;3.10;;
7571;SDS011;3827;49.928;8.548;2023-09-07T08:34:59;3.63;;;3.33;;
7571;SDS011;3827;49.928;8.548;2023-09-07T08:37:26;3.63;;;3.42;;
7571;SDS011;3827;49.928;8.548;2023-09-07T08:39:55;3.70;;;3.40;;
7571;SDS011;3827;49.928;8.548;2023-09-07T08:42:22;3.60;;;3.30;;
7571;SDS011;3827;49.928;8.548;2023-09-07T08:44:49;3.88;;;3.58;;
7571;SDS011;3827;49.928;8.548;2023-09-07T08:47:18;3.95;;;3.63;;
7571;SDS011;3827;49.928;8.548;2023-09-07T08:49:47;3.17;;;2.97;;
7571;SDS011;3827;49.928;8.548;2023-09-07T08:52:15;3.55;;;3.25;;
7571;SDS011;3827;49.928;8.548;2023-09-07T08:54:42;4.00;;;3.20;;
7571;SDS011;3827;49.928;8.548;2023-09-07T08:57:09;3.63;;;3.33;;
7571;SDS011;3827;49.928;8.548;2023-09-07T08:59:37;4.07;;;3.78;;
7571;SDS011;3827;49.928;8.548;2023-09-07T09:02:06;3.10;;;2.90;;
7571;SDS011;3827;49.928;8.548;2023-09-07T09:04:36;3.63;;;3.33;;
7571;SDS011;3827;49.928;8.548;2023-09-07T09:07:05;3.45;;;3.25;;
7571;SDS011;3827;49.928;8.548;2023-09-07T09:09:32;3.55;;;3.25;;
7571;SDS011;3827;49.928;8.548;2023-09-07T09:12:06;3.55;;;3.25;;
7571;SDS011;3827;49.928;8.548;2023-09-07T09:14:33;3.40;;;3.10;;
7571;SDS011;3827;49.928;8.548;2023-09-07T09:17:00;3.13;;;2.92;;
7571;SDS011;3827;49.928;8.548;2023-09-07T09:19:31;3.47;;;3.17;;
7571;SDS011;3827;49.928;8.548;2023-09-07T09:21:58;3.22;;;2.92;;
7571;SDS011;3827;49.928;8.548;2023-09-07T09:24:26;3.70;;;3.03;;
7571;SDS011;3827;49.928;8.548;2023-09-07T09:26:53;4.75;;;2.90;;
7571;SDS011;3827;49.928;8.548;2023-09-07T09:29:21;3.60;;;3.28;;
7571;SDS011;3827;49.928;8.548;2023-09-07T09:31:49;3.20;;;3.00;;
7571;SDS011;3827;49.928;8.548;2023-09-07T09:34:17;3.65;;;3.28;;
7571;SDS011;3827;49.928;8.548;2023-09-07T09:36:45;3.10;;;2.90;;
7571;SDS011;3827;49.928;8.548;2023-09-07T09:39:21;3.10;;;2.90;;
7571;SDS011;3827;49.928;8.548;2023-09-07T09:41:50;3.22;;;2.92;;
7571;SDS011;3827;49.928;8.548;2023-09-07T09:44:18;3.50;;;3.25;;
7571;SDS011;3827;49.928;8.548;2023-09-07T09:46:47;3.10;;;2.80;;
7571;SDS011;3827;49.928;8.548;2023-09-07T09:49:15;3.13;;;2.90;;
7571;SDS011;3827;49.928;8.548;2023-09-07T09:51:43;3.13;;;2.88;;
7571;SDS011;3827;49.928;8.548;2023-09-07T09:54:13;3.22;;;2.92;;
7571;SDS011;3827;49.928;8.548;2023-09-07T09:56:40;3.00;;;2.80;;
7571;SDS011;3827;49.928;8.548;2023-09-07T09:59:09;3.50;;;2.90;;
7571;SDS011;3827;49.928;8.548;2023-09-07T10:01:43;2.90;;;2.70;;
7571;SDS011;3827;49.928;8.548;2023-09-07T10:04:11;3.83;;;2.90;;
7571;SDS011;3827;49.928;8.548;2023-09-07T10:06:49;3.15;;;2.65;;
7571;SDS011;3827;49.928;8.548;2023-09-07T10:09:17;2.70;;;2.50;;
7571;SDS011;3827;49.928;8.548;2023-09-07T10:11:50;3.20;;;2.80;;
7571;SDS011;3827;49.928;8.548;2023-09-07T10:14:19;3.20;;;2.90;;
7571;SDS011;3827;49.928;8.548;2023-09-07T10:16:47;2.88;;;2.67;;
7571;SDS011;3827;49.928;8.548;2023-09-07T10:19:15;2.72;;;2.53;;
7571;SDS011;3827;49.928;8.548;2023-09-07T10:21:42;3.20;;;2.67;;
7571;SDS011;3827;49.928;8.548;2023-09-07T10:24:09;2.83;;;2.63;;
7571;SDS011;3827;49.928;8.548;2023-09-07T10:26:36;2.90;;;2.70;;
7571;SDS011;3827;49.928;8.548;2023-09-07T10:29:03;3.45;;;2.70;;
7571;SDS011;3827;49.928;8.548;2023-09-07T10:31:32;2.80;;;2.60;;
7571;SDS011;3827;49.928;8.548;2023-09-07T10:36:43;2.70;;;2.50;;
7571;SDS011;3827;49.928;8.548;2023-09-07T10:39:11;4.13;;;2.40;;
7571;SDS011;3827;49.928;8.548;2023-09-07T10:41:41;2.90;;;2.70;;
7571;SDS011;3827;49.928;8.548;2023-09-07T10:44:08;3.60;;;2.60;;
7571;SDS011;3827;49.928;8.548;2023-09-07T10:46:38;2.63;;;2.42;;
7571;SDS011;3827;49.928;8.548;2023-09-07T10:49:06;2.40;;;2.20;;
7571;SDS011;3827;49.928;8.548;2023-09-07T10:51:39;3.72;;;2.75;;
7571;SDS011;3827;49.928;8.548;2023-09-07T10:54:14;2.60;;;2.40;;
7571;SDS011;3827;49.928;8.548;2023-09-07T10:56:43;3.67;;;2.50;;
7571;SDS011;3827;49.928;8.548;2023-09-07T10:59:11;3.60;;;2.75;;
7571;SDS011;3827;49.928;8.548;2023-09-07T11:01:40;2.63;;;2.42;;
7571;SDS011;3827;49.928;8.548;2023-09-07T11:04:07;3.60;;;2.60;;
7571;SDS011;3827;49.928;8.548;2023-09-07T11:06:36;2.53;;;2.33;;
7571;SDS011;3827;49.928;8.548;2023-09-07T11:09:03;2.88;;;2.67;;
7571;SDS011;3827;49.928;8.548;2023-09-07T11:11:33;3.70;;;2.55;;
7571;SDS011;3827;49.928;8.548;2023-09-07T11:14:01;2.63;;;2.40;;
7571;SDS011;3827;49.928;8.548;2023-09-07T11:16:28;2.90;;;2.38;;
7571;SDS011;3827;49.928;8.548;2023-09-07T11:18:57;2.83;;;2.63;;
7571;SDS011;3827;49.928;8.548;2023-09-07T11:21:29;2.47;;;2.27;;
7571;SDS011;3827;49.928;8.548;2023-09-07T11:23:57;2.67;;;2.47;;
7571;SDS011;3827;49.928;8.548;2023-09-07T11:26:24;3.38;;;2.53;;
7571;SDS011;3827;49.928;8.548;2023-09-07T11:28:51;3.05;;;2.85;;
7571;SDS011;3827;49.928;8.548;2023-09-07T11:31:19;2.80;;;2.60;;
7571;SDS011;3827;49.928;8.548;2023-09-07T11:33:46;2.67;;;2.47;;
7571;SDS011;3827;49.928;8.548;2023-09-07T11:36:16;3.67;;;2.60;;
7571;SDS011;3827;49.928;8.548;2023-09-07T11:38:43;2.67;;;2.47;;
7571;SDS011;3827;49.928;8.548;2023-09-07T11:41:11;2.78;;;2.58;;
7571;SDS011;3827;49.928;8.548;2023-09-07T11:43:37;2.80;;;2.60;;
7571;SDS011;3827;49.928;8.548;2023-09-07T11:46:06;3.30;;;2.50;;
7571;SDS011;3827;49.928;8.548;2023-09-07T11:48:33;2.78;;;2.50;;
7571;SDS011;3827;49.928;8.548;2023-09-07T11:51:00;2.80;;;2.60;;
7571;SDS011;3827;49.928;8.548;2023-09-07T11:53:28;2.75;;;2.50;;
7571;SDS011;3827;49.928;8.548;2023-09-07T11:55:55;4.45;;;2.70;;
7571;SDS011;3827;49.928;8.548;2023-09-07T11:58:23;2.65;;;2.45;;
7571;SDS011;3827;49.928;8.548;2023-09-07T12:00:51;2.85;;;2.55;;
7571;SDS011;3827;49.928;8.548;2023-09-07T12:03:18;2.50;;;2.40;;
7571;SDS011;3827;49.928;8.548;2023-09-07T12:05:45;2.97;;;2.70;;
7571;SDS011;3827;49.928;8.548;2023-09-07T12:08:12;3.03;;;2.53;;
7571;SDS011;3827;49.928;8.548;2023-09-07T12:10:40;2.72;;;2.53;;
7571;SDS011;3827;49.928;8.548;2023-09-07T12:13:07;2.58;;;2.38;;
7571;SDS011;3827;49.928;8.548;2023-09-07T12:15:34;2.95;;;2.67;;
7571;SDS011;3827;49.928;8.548;2023-09-07T12:18:01;2.88;;;2.67;;
7571;SDS011;3827;49.928;8.548;2023-09-07T12:20:28;3.10;;;2.80;;
7571;SDS011;3827;49.928;8.548;2023-09-07T12:22:54;2.88;;;2.67;;
7571;SDS011;3827;49.928;8.548;2023-09-07T12:25:21;2.90;;;2.60;;
7571;SDS011;3827;49.928;8.548;2023-09-07T12:27:49;2.70;;;2.50;;
7571;SDS011;3827;49.928;8.548;2023-09-07T12:30:17;3.78;;;2.60;;
7571;SDS011;3827;49.928;8.548;2023-09-07T12:32:45;2.90;;;2.70;;
7571;SDS011;3827;49.928;8.548;2023-09-07T12:35:12;2.90;;;2.60;;
7571;SDS011;3827;49.928;8.548;2023-09-07T12:37:40;3.08;;;2.80;;
7571;SDS011;3827;49.928;8.548;2023-09-07T12:40:07;3.10;;;2.90;;
7571;SDS011;3827;49.928;8.548;2023-09-07T12:42:40;2.70;;;2.50;;
7571;SDS011;3827;49.928;8.548;2023-09-07T12:45:10;2.80;;;2.60;;
7571;SDS011;3827;49.928;8.548;2023-09-07T12:47:37;2.90;;;2.70;;
7571;SDS011;3827;49.928;8.548;2023-09-07T12:50:04;3.03;;;2.83;;
7571;SDS011;3827;49.928;8.548;2023-09-07T12:52:32;3.13;;;2.83;;
7571;SDS011;3827;49.928;8.548;2023-09-07T12:55:01;2.78;;;2.58;;
7571;SDS011;3827;49.928;8.548;2023-09-07T12:57:28;2.80;;;2.60;;
7571;SDS011;3827;49.928;8.548;2023-09-07T12:59:55;2.70;;;2.50;;
7571;SDS011;3827;49.928;8.548;2023-09-07T13:02:23;2.45;;;2.35;;
7571;SDS011;3827;49.928;8.548;2023-09-07T13:04:50;2.80;;;2.60;;
7571;SDS011;3827;49.928;8.548;2023-09-07T13:07:16;2.58;;;2.38;;
7571;SDS011;3827;49.928;8.548;2023-09-07T13:09:43;2.88;;;2.67;;
7571;SDS011;3827;49.928;8.548;2023-09-07T13:12:11;2.78;;;2.58;;
7571;SDS011;3827;49.928;8.548;2023-09-07T13:14:38;2.88;;;2.67;;
7571;SDS011;3827;49.928;8.548;2023-09-07T13:17:04;3.50;;;2.78;;
7571;SDS011;3827;49.928;8.548;2023-09-07T13:19:32;2.72;;;2.53;;
7571;SDS011;3827;49.928;8.548;2023-09-07T13:21:59;2.60;;;2.40;;
7571;SDS011;3827;49.928;8.548;2023-09-07T13:24:26;3.35;;;2.72;;
7571;SDS011;3827;49.928;8.548;2023-09-07T13:26:53;2.78;;;2.47;;
7571;SDS011;3827;49.928;8.548;2023-09-07T13:29:20;2.45;;;2.30;;
7571;SDS011;3827;49.928;8.548;2023-09-07T13:31:47;2.70;;;2.50;;
7571;SDS011;3827;49.928;8.548;2023-09-07T13:34:14;2.83;;;2.47;;
7571;SDS011;3827;49.928;8.548;2023-09-07T13:36:43;2.30;;;2.20;;
7571;SDS011;3827;49.928;8.548;2023-09-07T13:39:09;2.38;;;2.20;;
7571;SDS011;3827;49.928;8.548;2023-09-07T13:41:36;2.70;;;2.50;;
7571;SDS011;3827;49.928;8.548;2023-09-07T13:44:03;2.70;;;2.50;;
7571;SDS011;3827;49.928;8.548;2023-09-07T13:46:30;2.33;;;2.22;;
7571;SDS011;3827;49.928;8.548;2023-09-07T13:48:57;2.83;;;2.63;;
7571;SDS011;3827;49.928;8.548;2023-09-07T13:51:24;2.70;;;2.50;;
7571;SDS011;3827;49.928;8.548;2023-09-07T13:53:52;3.00;;;2.50;;
7571;SDS011;3827;49.928;8.548;2023-09-07T13:56:19;2.40;;;2.20;;
7571;SDS011;3827;49.928;8.548;2023-09-07T13:58:45;2.50;;;2.30;;
7571;SDS011;3827;49.928;8.548;2023-09-07T14:01:12;2.33;;;2.13;;
7571;SDS011;3827;49.928;8.548;2023-09-07T14:03:39;2.80;;;2.60;;
7571;SDS011;3827;49.928;8.548;2023-09-07T14:06:06;2.70;;;2.50;;
7571;SDS011;3827;49.928;8.548;2023-09-07T14:08:33;2.72;;;2.50;;
7571;SDS011;3827;49.928;8.548;2023-09-07T14:11:01;2.60;;;2.40;;
7571;SDS011;3827;49.928;8.548;2023-09-07T14:13:28;2.60;;;2.40;;
7571;SDS011;3827;49.928;8.548;2023-09-07T14:15:55;2.53;;;2.40;;
7571;SDS011;3827;49.928;8.548;2023-09-07T14:18:22;2.50;;;2.30;;
7571;SDS011;3827;49.928;8.548;2023-09-07T14:20:48;3.53;;;2.27;;
7571;SDS011;3827;49.928;8.548;2023-09-07T14:23:15;2.75;;;2.33;;
7571;SDS011;3827;49.928;8.548;2023-09-07T14:25:42;4.15;;;2.40;;
7571;SDS011;3827;49.928;8.548;2023-09-07T14:28:11;2.67;;;2.47;;
7571;SDS011;3827;49.928;8.548;2023-09-07T14:30:38;3.35;;;2.60;;
7571;SDS011;3827;49.928;8.548;2023-09-07T14:33:05;2.67;;;2.47;;
7571;SDS011;3827;49.928;8.548;2023-09-07T14:35:32;2.85;;;2.50;;
7571;SDS011;3827;49.928;8.548;2023-09-07T14:37:58;2.63;;;2.42;;
7571;SDS011;3827;49.928;8.548;2023-09-07T14:40:25;2.42;;;2.22;;
7571;SDS011;3827;49.928;8.548;2023-09-07T14:42:52;2.60;;;2.40;;
7571;SDS011;3827;49.928;8.548;2023-09-07T14:45:23;2.70;;;2.50;;
7571;SDS011;3827;49.928;8.548;2023-09-07T14:47:50;3.28;;;2.97;;
7571;SDS011;3827;49.928;8.548;2023-09-07T14:50:17;2.35;;;2.15;;
7571;SDS011;3827;49.928;8.548;2023-09-07T14:52:44;3.03;;;2.35;;
7571;SDS011;3827;49.928;8.548;2023-09-07T14:55:12;2.77;;;2.57;;
7571;SDS011;3827;49.928;8.548;2023-09-07T14:57:39;2.47;;;2.28;;
7571;SDS011;3827;49.928;8.548;2023-09-07T15:00:07;3.30;;;2.50;;
7571;SDS011;3827;49.928;8.548;2023-09-07T15:02:36;4.97;;;2.80;;
7571;SDS011;3827;49.928;8.548;2023-09-07T15:05:03;2.55;;;2.35;;
7571;SDS011;3827;49.928;8.548;2023-09-07T15:07:30;2.65;;;2.42;;
7571;SDS011;3827;49.928;8.548;2023-09-07T15:09:57;2.55;;;2.30;;
7571;SDS011;3827;49.928;8.548;2023-09-07T15:12:24;2.53;;;2.33;;
7571;SDS011;3827;49.928;8.548;2023-09-07T15:14:51;2.60;;;2.40;;
7571;SDS011;3827;49.928;8.548;2023-09-07T15:17:18;2.50;;;2.30;;
7571;SDS011;3827;49.928;8.548;2023-09-07T15:19:46;2.67;;;2.47;;